createdAt,value
2017-10-07T00:00:34.376Z,0.00
2017-10-07T00:01:34.298Z,0.00
2017-10-07T00:02:34.223Z,0.00
2017-10-07T00:03:34.137Z,0.00
2017-10-07T00:04:34.050Z,0.00
2017-10-07T00:05:33.960Z,0.00
2017-10-07T00:06:33.876Z,0.00
2017-10-07T00:07:33.800Z,0.00
2017-10-07T00:08:33.706Z,0.00
2017-10-07T00:09:33.625Z,0.00
2017-10-07T00:10:33.536Z,0.00
2017-10-07T00:11:33.458Z,0.00
2017-10-07T00:12:33.372Z,0.00
2017-10-07T00:13:33.286Z,0.00
2017-10-07T00:14:33.219Z,0.00
2017-10-07T00:15:33.130Z,0.00
2017-10-07T00:16:33.036Z,0.00
2017-10-07T00:17:32.949Z,0.00
2017-10-07T00:18:32.865Z,0.00
2017-10-07T00:19:32.804Z,0.00
2017-10-07T00:20:32.708Z,0.00
2017-10-07T00:21:32.615Z,0.00
2017-10-07T00:22:32.532Z,0.00
2017-10-07T00:23:32.447Z,0.00
2017-10-07T00:24:32.382Z,0.00
2017-10-07T00:25:32.297Z,0.00
2017-10-07T00:26:32.213Z,0.00
2017-10-07T00:27:32.110Z,0.00
2017-10-07T00:28:32.026Z,0.00
2017-10-07T00:29:31.942Z,0.00
2017-10-07T00:30:31.856Z,0.00
2017-10-07T00:31:31.768Z,0.00
2017-10-07T00:32:31.691Z,0.00
2017-10-07T00:33:31.610Z,0.00
2017-10-07T00:34:31.517Z,0.00
2017-10-07T00:35:31.431Z,0.00
2017-10-07T00:36:31.352Z,0.00
2017-10-07T00:37:31.262Z,0.00
2017-10-07T00:38:31.184Z,0.00
2017-10-07T00:39:31.095Z,0.00
2017-10-07T00:40:31.008Z,0.00
2017-10-07T00:41:30.925Z,0.00
2017-10-07T00:42:30.841Z,0.00
2017-10-07T00:43:30.755Z,0.00
2017-10-07T00:44:30.672Z,0.00
2017-10-07T00:45:30.588Z,0.00
2017-10-07T00:46:30.505Z,0.00
2017-10-07T00:47:30.430Z,0.00
2017-10-07T00:48:30.353Z,0.00
2017-10-07T00:49:30.251Z,0.00
2017-10-07T00:50:30.165Z,0.00
2017-10-07T00:51:30.104Z,0.00
2017-10-07T00:52:29.995Z,0.00
2017-10-07T00:53:29.943Z,0.00
2017-10-07T00:54:29.838Z,0.00
2017-10-07T00:55:29.748Z,0.00
2017-10-07T00:56:29.663Z,0.00
2017-10-07T00:57:29.575Z,0.00
2017-10-07T00:58:29.515Z,0.00
2017-10-07T00:59:29.413Z,0.00
2017-10-07T01:00:29.356Z,0.00
2017-10-07T01:01:29.239Z,0.00
2017-10-07T01:02:29.158Z,0.00
2017-10-07T01:03:29.072Z,0.00
2017-10-07T01:04:28.989Z,0.00
2017-10-07T01:05:28.925Z,0.00
2017-10-07T01:06:28.817Z,0.00
2017-10-07T01:07:28.737Z,0.00
2017-10-07T01:08:28.655Z,0.00
2017-10-07T01:09:28.579Z,0.00
2017-10-07T01:10:28.483Z,0.00
2017-10-07T01:11:28.404Z,0.00
2017-10-07T01:12:28.310Z,0.00
2017-10-07T01:13:28.236Z,0.00
2017-10-07T01:14:28.163Z,0.00
2017-10-07T01:15:28.063Z,0.00
2017-10-07T01:16:27.982Z,0.00
2017-10-07T01:17:27.893Z,0.00
2017-10-07T01:18:27.808Z,0.00
2017-10-07T01:19:27.722Z,0.00
2017-10-07T01:20:27.672Z,0.00
2017-10-07T01:21:27.594Z,0.00
2017-10-07T01:22:27.476Z,0.00
2017-10-07T01:23:27.391Z,0.00
2017-10-07T01:24:27.296Z,0.00
2017-10-07T01:25:27.218Z,0.00
2017-10-07T01:26:27.141Z,0.00
2017-10-07T01:27:27.055Z,0.00
2017-10-07T01:28:26.962Z,0.00
2017-10-07T01:29:26.887Z,0.00
2017-10-07T01:30:26.795Z,0.00
2017-10-07T01:31:26.717Z,0.00
2017-10-07T01:32:26.625Z,0.00
2017-10-07T01:33:26.542Z,0.00
2017-10-07T01:34:26.454Z,0.00
2017-10-07T01:35:26.369Z,0.00
2017-10-07T01:36:26.285Z,0.00
2017-10-07T01:37:26.198Z,0.00
2017-10-07T01:38:26.113Z,0.00
2017-10-07T01:39:26.042Z,0.00
2017-10-07T01:40:25.949Z,0.00
2017-10-07T01:41:25.862Z,0.00
2017-10-07T01:42:25.776Z,0.00
2017-10-07T01:43:25.694Z,0.00
2017-10-07T01:44:25.610Z,0.00
2017-10-07T01:45:25.524Z,0.00
2017-10-07T01:46:25.443Z,0.00
2017-10-07T01:47:25.355Z,0.00
2017-10-07T01:48:25.268Z,0.00
2017-10-07T01:49:25.197Z,0.00
2017-10-07T01:50:25.101Z,0.00
2017-10-07T01:51:25.011Z,0.00
2017-10-07T01:52:24.936Z,0.00
2017-10-07T01:53:24.849Z,0.00
2017-10-07T01:54:24.768Z,0.00
2017-10-07T01:55:24.677Z,0.00
2017-10-07T01:56:24.591Z,0.00
2017-10-07T01:57:24.522Z,0.00
2017-10-07T01:58:24.428Z,0.00
2017-10-07T01:59:24.345Z,0.00
2017-10-07T02:00:24.251Z,0.00
2017-10-07T02:01:24.174Z,0.00
2017-10-07T02:02:24.087Z,0.00
2017-10-07T02:03:24.021Z,0.00
2017-10-07T02:04:23.915Z,0.00
2017-10-07T02:05:23.830Z,0.00
2017-10-07T02:06:23.752Z,0.00
2017-10-07T02:07:23.660Z,0.00
2017-10-07T02:08:23.584Z,0.00
2017-10-07T02:09:23.511Z,0.00
2017-10-07T02:10:23.409Z,0.00
2017-10-07T02:11:23.326Z,0.00
2017-10-07T02:12:23.247Z,0.00
2017-10-07T02:13:23.156Z,0.00
2017-10-07T02:14:23.070Z,0.00
2017-10-07T02:15:22.989Z,0.00
2017-10-07T02:16:22.900Z,0.00
2017-10-07T02:17:22.829Z,0.00
2017-10-07T02:18:22.734Z,0.00
2017-10-07T02:19:22.645Z,0.00
2017-10-07T02:20:22.564Z,0.00
2017-10-07T02:21:22.486Z,0.00
2017-10-07T02:22:22.391Z,0.00
2017-10-07T02:23:22.308Z,0.00
2017-10-07T02:24:22.217Z,0.00
2017-10-07T02:25:22.142Z,0.00
2017-10-07T02:26:22.054Z,0.00
2017-10-07T02:27:21.970Z,0.00
2017-10-07T02:28:21.886Z,0.00
2017-10-07T02:29:21.795Z,0.00
2017-10-07T02:30:21.720Z,0.00
2017-10-07T02:31:21.634Z,0.00
2017-10-07T02:32:21.550Z,0.00
2017-10-07T02:33:21.460Z,0.00
2017-10-07T02:34:21.369Z,0.00
2017-10-07T02:35:21.299Z,0.00
2017-10-07T02:36:21.204Z,0.00
2017-10-07T02:37:21.129Z,0.00
2017-10-07T02:38:21.034Z,0.00
2017-10-07T02:39:20.945Z,0.00
2017-10-07T02:40:20.863Z,0.00
2017-10-07T02:41:20.781Z,0.00
2017-10-07T02:42:20.697Z,0.00
2017-10-07T02:43:20.610Z,0.00
2017-10-07T02:44:20.526Z,0.00
2017-10-07T02:45:20.440Z,0.00
2017-10-07T02:46:20.357Z,0.00
2017-10-07T02:47:20.268Z,0.00
2017-10-07T02:48:20.185Z,0.00
2017-10-07T02:49:20.104Z,0.00
2017-10-07T02:50:20.014Z,0.00
2017-10-07T02:51:19.928Z,0.00
2017-10-07T02:52:19.845Z,0.00
2017-10-07T02:53:19.762Z,0.00
2017-10-07T02:54:19.675Z,0.00
2017-10-07T02:55:19.587Z,0.00
2017-10-07T02:56:19.498Z,0.00
2017-10-07T02:57:19.435Z,0.00
2017-10-07T02:58:19.336Z,0.00
2017-10-07T02:59:19.256Z,0.00
2017-10-07T03:00:19.166Z,0.00
2017-10-07T03:01:19.078Z,0.00
2017-10-07T03:02:18.993Z,0.00
2017-10-07T03:03:18.906Z,0.00
2017-10-07T03:04:18.823Z,0.00
2017-10-07T03:05:18.738Z,0.00
2017-10-07T03:06:18.658Z,0.00
2017-10-07T03:07:18.570Z,0.00
2017-10-07T03:08:18.485Z,0.00
2017-10-07T03:09:18.398Z,0.00
2017-10-07T03:10:18.315Z,0.00
2017-10-07T03:11:18.228Z,0.00
2017-10-07T03:12:18.145Z,0.00
2017-10-07T03:13:19.166Z,0.00
2017-10-07T03:14:17.980Z,0.00
2017-10-07T03:15:17.893Z,0.00
2017-10-07T03:16:17.803Z,0.00
2017-10-07T03:17:17.724Z,0.00
2017-10-07T03:18:17.638Z,0.00
2017-10-07T03:19:17.549Z,0.00
2017-10-07T03:20:17.472Z,0.00
2017-10-07T03:21:17.383Z,0.00
2017-10-07T03:22:17.296Z,0.00
2017-10-07T03:23:17.209Z,0.00
2017-10-07T03:24:17.126Z,0.00
2017-10-07T03:25:17.067Z,0.00
2017-10-07T03:26:16.991Z,0.00
2017-10-07T03:27:16.893Z,0.00
2017-10-07T03:28:16.788Z,0.00
2017-10-07T03:29:16.704Z,0.00
2017-10-07T03:30:16.631Z,0.00
2017-10-07T03:31:16.553Z,0.00
2017-10-07T03:32:16.445Z,0.00
2017-10-07T03:33:16.357Z,0.00
2017-10-07T03:34:16.276Z,0.00
2017-10-07T03:35:16.205Z,0.00
2017-10-07T03:36:16.102Z,0.00
2017-10-07T03:37:16.019Z,0.00
2017-10-07T03:38:15.932Z,0.00
2017-10-07T03:39:15.852Z,0.00
2017-10-07T03:40:15.763Z,0.00
2017-10-07T03:41:15.683Z,0.00
2017-10-07T03:42:15.594Z,0.00
2017-10-07T03:43:15.510Z,0.00
2017-10-07T03:44:15.441Z,0.00
2017-10-07T03:45:15.374Z,0.00
2017-10-07T03:46:15.289Z,0.00
2017-10-07T03:47:15.167Z,0.00
2017-10-07T03:48:15.092Z,0.00
2017-10-07T03:49:14.997Z,0.00
2017-10-07T03:50:14.915Z,0.00
2017-10-07T03:51:14.853Z,0.00
2017-10-07T03:52:14.751Z,0.00
2017-10-07T03:53:14.657Z,0.00
2017-10-07T03:54:14.569Z,0.00
2017-10-07T03:55:14.494Z,0.00
2017-10-07T03:56:14.413Z,0.00
2017-10-07T03:57:14.327Z,0.00
2017-10-07T03:58:14.232Z,0.00
2017-10-07T03:59:14.154Z,0.00
2017-10-07T04:00:14.062Z,0.00
2017-10-07T04:01:13.990Z,0.00
2017-10-07T04:02:13.898Z,0.00
2017-10-07T04:03:13.808Z,0.00
2017-10-07T04:04:13.724Z,0.00
2017-10-07T04:05:13.641Z,0.00
2017-10-07T04:06:13.552Z,0.00
2017-10-07T04:07:13.468Z,0.00
2017-10-07T04:08:13.407Z,0.00
2017-10-07T04:09:13.296Z,0.00
2017-10-07T04:10:13.215Z,0.00
2017-10-07T04:11:13.124Z,0.00
2017-10-07T04:12:13.051Z,0.00
2017-10-07T04:13:12.960Z,0.00
2017-10-07T04:14:12.876Z,0.00
2017-10-07T04:15:12.790Z,0.00
2017-10-07T04:16:12.707Z,0.00
2017-10-07T04:17:12.625Z,0.00
2017-10-07T04:18:12.547Z,0.00
2017-10-07T04:19:12.473Z,0.00
2017-10-07T04:20:12.364Z,0.00
2017-10-07T04:21:12.306Z,0.00
2017-10-07T04:22:12.200Z,0.00
2017-10-07T04:23:12.110Z,0.00
2017-10-07T04:24:12.031Z,0.00
2017-10-07T04:25:11.947Z,0.00
2017-10-07T04:26:11.871Z,0.00
2017-10-07T04:27:11.774Z,0.00
2017-10-07T04:28:11.687Z,0.00
2017-10-07T04:29:11.608Z,0.00
2017-10-07T04:30:11.525Z,0.00
2017-10-07T04:31:11.434Z,0.00
2017-10-07T04:32:11.348Z,0.00
2017-10-07T04:33:11.277Z,0.00
2017-10-07T04:34:11.187Z,0.00
2017-10-07T04:35:11.110Z,0.00
2017-10-07T04:36:11.010Z,0.00
2017-10-07T04:37:10.927Z,0.00
2017-10-07T04:38:10.845Z,0.00
2017-10-07T04:39:10.758Z,0.00
2017-10-07T04:40:10.675Z,0.00
2017-10-07T04:41:10.586Z,0.00
2017-10-07T04:42:10.501Z,0.00
2017-10-07T04:43:10.418Z,0.00
2017-10-07T04:44:10.335Z,0.00
2017-10-07T04:45:10.248Z,0.00
2017-10-07T04:46:10.163Z,0.00
2017-10-07T04:47:10.076Z,0.00
2017-10-07T04:48:09.991Z,0.00
2017-10-07T04:49:09.936Z,0.00
2017-10-07T04:50:09.831Z,0.00
2017-10-07T04:51:09.738Z,0.00
2017-10-07T04:52:09.652Z,0.00
2017-10-07T04:53:09.577Z,0.00
2017-10-07T04:54:09.492Z,0.00
2017-10-07T04:55:09.398Z,0.00
2017-10-07T04:56:09.310Z,0.00
2017-10-07T04:57:09.230Z,0.00
2017-10-07T04:58:09.146Z,0.00
2017-10-07T04:59:09.055Z,0.00
2017-10-07T05:00:08.976Z,0.00
2017-10-07T05:01:08.888Z,0.00
2017-10-07T05:02:08.804Z,0.00
2017-10-07T05:03:08.741Z,0.00
2017-10-07T05:04:08.632Z,0.00
2017-10-07T05:05:08.544Z,0.00
2017-10-07T05:06:08.460Z,0.00
2017-10-07T05:07:08.378Z,0.00
2017-10-07T05:08:08.294Z,0.00
2017-10-07T05:09:08.208Z,0.00
2017-10-07T05:10:08.125Z,0.00
2017-10-07T05:11:08.044Z,0.00
2017-10-07T05:12:07.955Z,0.00
2017-10-07T05:13:07.870Z,0.00
2017-10-07T05:14:07.785Z,0.00
2017-10-07T05:15:07.696Z,0.00
2017-10-07T05:16:07.619Z,0.00
2017-10-07T05:17:07.535Z,0.00
2017-10-07T05:18:07.448Z,0.00
2017-10-07T05:19:07.355Z,0.00
2017-10-07T05:20:07.271Z,0.00
2017-10-07T05:21:07.190Z,0.00
2017-10-07T05:22:07.116Z,0.00
2017-10-07T05:23:07.018Z,0.00
2017-10-07T05:24:06.933Z,0.00
2017-10-07T05:25:06.861Z,0.00
2017-10-07T05:26:06.767Z,0.00
2017-10-07T05:27:06.683Z,0.00
2017-10-07T05:28:06.595Z,5.63
2017-10-07T05:29:06.507Z,5.63
2017-10-07T05:30:06.450Z,5.63
2017-10-07T05:31:06.360Z,5.63
2017-10-07T05:32:06.263Z,5.63
2017-10-07T05:33:06.172Z,5.63
2017-10-07T05:34:06.104Z,5.63
2017-10-07T05:35:06.012Z,5.63
2017-10-07T05:36:05.915Z,11.25
2017-10-07T05:37:05.843Z,11.25
2017-10-07T05:38:05.741Z,11.25
2017-10-07T05:39:05.659Z,11.25
2017-10-07T05:40:05.589Z,16.88
2017-10-07T05:41:05.493Z,16.88
2017-10-07T05:42:05.409Z,16.88
2017-10-07T05:43:05.315Z,16.88
2017-10-07T05:44:05.238Z,22.50
2017-10-07T05:45:05.158Z,22.50
2017-10-07T05:46:05.069Z,22.50
2017-10-07T05:47:04.982Z,22.50
2017-10-07T05:48:04.898Z,28.13
2017-10-07T05:49:04.812Z,28.13
2017-10-07T05:50:04.739Z,28.13
2017-10-07T05:51:04.639Z,33.75
2017-10-07T05:52:04.550Z,33.75
2017-10-07T05:53:04.469Z,33.75
2017-10-07T05:54:04.384Z,39.38
2017-10-07T05:55:04.311Z,39.38
2017-10-07T05:56:04.216Z,39.38
2017-10-07T05:57:04.132Z,45.00
2017-10-07T05:58:04.046Z,45.00
2017-10-07T05:59:03.971Z,50.63
2017-10-07T06:00:03.901Z,50.63
2017-10-07T06:01:03.789Z,56.25
2017-10-07T06:02:03.706Z,56.25
2017-10-07T06:03:03.622Z,56.25
2017-10-07T06:04:03.533Z,61.88
2017-10-07T06:05:03.457Z,73.13
2017-10-07T06:06:03.364Z,78.75
2017-10-07T06:07:03.277Z,84.38
2017-10-07T06:08:03.195Z,95.63
2017-10-07T06:09:03.113Z,101.25
2017-10-07T06:10:03.024Z,95.63
2017-10-07T06:11:02.939Z,101.25
2017-10-07T06:12:02.846Z,106.88
2017-10-07T06:13:02.767Z,101.25
2017-10-07T06:14:02.680Z,106.88
2017-10-07T06:15:02.592Z,106.88
2017-10-07T06:16:02.522Z,118.13
2017-10-07T06:17:02.432Z,123.75
2017-10-07T06:18:02.338Z,123.75
2017-10-07T06:19:02.253Z,129.38
2017-10-07T06:20:02.177Z,140.63
2017-10-07T06:21:02.084Z,151.88
2017-10-07T06:22:01.999Z,157.50
2017-10-07T06:23:01.915Z,163.13
2017-10-07T06:24:01.831Z,168.75
2017-10-07T06:25:01.742Z,180.00
2017-10-07T06:26:01.657Z,191.25
2017-10-07T06:27:01.577Z,185.63
2017-10-07T06:28:01.495Z,202.50
2017-10-07T06:29:01.421Z,213.75
2017-10-07T06:30:01.320Z,196.88
2017-10-07T06:31:01.245Z,185.63
2017-10-07T06:32:01.152Z,180.00
2017-10-07T06:33:01.072Z,185.63
2017-10-07T06:34:00.980Z,196.88
2017-10-07T06:35:00.904Z,185.63
2017-10-07T06:36:00.817Z,185.63
2017-10-07T06:37:00.733Z,191.25
2017-10-07T06:38:00.670Z,208.13
2017-10-07T06:39:00.557Z,219.38
2017-10-07T06:40:00.472Z,219.38
2017-10-07T06:41:00.391Z,219.38
2017-10-07T06:42:00.317Z,185.63
2017-10-07T06:43:00.222Z,163.13
2017-10-07T06:44:00.139Z,151.88
2017-10-07T06:45:00.054Z,151.88
2017-10-07T06:45:59.984Z,151.88
2017-10-07T06:46:59.880Z,151.88
2017-10-07T06:47:59.799Z,157.50
2017-10-07T06:48:59.719Z,157.50
2017-10-07T06:49:59.638Z,163.13
2017-10-07T06:50:59.553Z,168.75
2017-10-07T06:51:59.466Z,180.00
2017-10-07T06:52:59.376Z,191.25
2017-10-07T06:53:59.311Z,213.75
2017-10-07T06:54:59.213Z,253.13
2017-10-07T06:55:59.126Z,292.50
2017-10-07T06:56:59.042Z,326.25
2017-10-07T06:57:58.983Z,365.63
2017-10-07T06:58:58.883Z,478.13
2017-10-07T06:59:58.787Z,354.38
2017-10-07T07:00:58.706Z,444.38
2017-10-07T07:01:58.620Z,343.13
2017-10-07T07:02:58.537Z,275.63
2017-10-07T07:03:58.467Z,275.63
2017-10-07T07:04:58.373Z,309.38
2017-10-07T07:05:58.285Z,326.25
2017-10-07T07:06:58.199Z,331.88
2017-10-07T07:07:58.121Z,382.50
2017-10-07T07:08:58.033Z,776.25
2017-10-07T07:09:57.949Z,511.88
2017-10-07T07:10:57.860Z,607.50
2017-10-07T07:11:57.786Z,427.50
2017-10-07T07:12:57.721Z,466.88
2017-10-07T07:13:57.630Z,438.75
2017-10-07T07:14:57.527Z,461.25
2017-10-07T07:15:57.442Z,461.25
2017-10-07T07:16:57.382Z,472.50
2017-10-07T07:17:57.270Z,472.50
2017-10-07T07:18:57.192Z,506.25
2017-10-07T07:19:57.106Z,534.38
2017-10-07T07:20:57.022Z,669.38
2017-10-07T07:21:56.934Z,652.50
2017-10-07T07:22:56.851Z,641.25
2017-10-07T07:23:56.771Z,585.00
2017-10-07T07:24:56.682Z,714.38
2017-10-07T07:25:56.613Z,669.38
2017-10-07T07:26:56.518Z,742.50
2017-10-07T07:27:56.432Z,680.63
2017-10-07T07:28:56.350Z,708.75
2017-10-07T07:29:56.269Z,759.38
2017-10-07T07:30:56.178Z,753.75
2017-10-07T07:31:56.117Z,1884.38
2017-10-07T07:32:56.013Z,3408.75
2017-10-07T07:33:55.934Z,3594.38
2017-10-07T07:34:55.849Z,3650.63
2017-10-07T07:35:55.764Z,2216.25
2017-10-07T07:36:55.678Z,1158.75
2017-10-07T07:37:55.597Z,984.38
2017-10-07T07:38:55.513Z,950.63
2017-10-07T07:39:55.436Z,1625.63
2017-10-07T07:40:55.349Z,1861.88
2017-10-07T07:41:55.273Z,1918.13
2017-10-07T07:42:55.188Z,3425.63
2017-10-07T07:43:55.105Z,2784.38
2017-10-07T07:44:55.055Z,1231.88
2017-10-07T07:45:54.949Z,731.25
2017-10-07T07:46:54.863Z,658.13
2017-10-07T07:47:54.775Z,866.25
2017-10-07T07:48:54.695Z,1991.25
2017-10-07T07:49:54.620Z,1901.25
2017-10-07T07:50:54.539Z,1513.13
2017-10-07T07:51:54.467Z,2874.38
2017-10-07T07:52:54.393Z,2086.88
2017-10-07T07:53:54.288Z,2317.50
2017-10-07T07:54:54.214Z,3189.38
2017-10-07T07:55:54.127Z,2109.38
2017-10-07T07:56:54.049Z,2025.00
2017-10-07T07:57:53.972Z,2705.63
2017-10-07T07:58:53.892Z,2868.75
2017-10-07T07:59:53.820Z,4966.88
2017-10-07T08:00:53.736Z,4905.00
2017-10-07T08:01:53.647Z,4989.38
2017-10-07T08:02:53.568Z,2688.75
2017-10-07T08:03:53.494Z,2604.38
2017-10-07T08:04:53.455Z,3481.88
2017-10-07T08:05:53.337Z,4899.38
2017-10-07T08:06:53.251Z,5236.88
2017-10-07T08:07:53.172Z,4927.50
2017-10-07T08:08:53.097Z,5343.75
2017-10-07T08:09:53.027Z,5107.50
2017-10-07T08:10:52.937Z,5090.63
2017-10-07T08:11:52.867Z,5180.63
2017-10-07T08:12:52.790Z,5062.50
2017-10-07T08:13:52.718Z,5158.13
2017-10-07T08:14:52.638Z,5141.25
2017-10-07T08:15:52.574Z,3931.88
2017-10-07T08:16:52.490Z,4865.63
2017-10-07T08:17:52.411Z,4843.13
2017-10-07T08:18:52.340Z,5231.25
2017-10-07T08:19:52.260Z,5287.50
2017-10-07T08:20:52.183Z,5220.00
2017-10-07T08:21:52.102Z,5259.38
2017-10-07T08:22:52.038Z,5304.38
2017-10-07T08:23:51.956Z,5253.75
2017-10-07T08:24:51.885Z,5388.75
2017-10-07T08:25:51.813Z,4719.38
2017-10-07T08:26:51.737Z,5495.63
2017-10-07T08:27:51.657Z,5535.00
2017-10-07T08:28:51.582Z,2525.63
2017-10-07T08:29:51.510Z,5709.38
2017-10-07T08:30:51.455Z,5568.75
2017-10-07T08:31:51.358Z,5641.88
2017-10-07T08:32:51.283Z,5709.38
2017-10-07T08:33:51.210Z,5000.63
2017-10-07T08:34:51.134Z,3166.88
2017-10-07T08:35:51.059Z,1485.00
2017-10-07T08:36:50.990Z,3718.13
2017-10-07T08:37:50.903Z,4651.88
2017-10-07T08:38:50.827Z,5225.63
2017-10-07T08:39:50.751Z,6041.25
2017-10-07T08:40:50.673Z,6001.88
2017-10-07T08:41:50.601Z,5979.38
2017-10-07T08:42:50.534Z,5962.50
2017-10-07T08:43:50.444Z,5715.00
2017-10-07T08:44:50.378Z,6086.25
2017-10-07T08:45:50.291Z,6142.50
2017-10-07T08:46:52.631Z,6210.00
2017-10-07T08:47:50.145Z,6322.50
2017-10-07T08:48:50.118Z,5360.63
2017-10-07T08:49:49.999Z,3549.38
2017-10-07T08:50:49.919Z,3076.88
2017-10-07T08:51:49.853Z,1940.63
2017-10-07T08:52:49.755Z,2086.88
2017-10-07T08:53:49.688Z,2491.88
2017-10-07T08:54:49.620Z,2199.38
2017-10-07T08:55:49.530Z,2345.63
2017-10-07T08:56:49.468Z,1788.75
2017-10-07T08:57:49.384Z,1693.13
2017-10-07T08:58:49.308Z,1209.38
2017-10-07T08:59:49.216Z,1006.88
2017-10-07T09:00:49.143Z,928.13
2017-10-07T09:01:49.060Z,905.63
2017-10-07T09:02:48.982Z,871.88
2017-10-07T09:03:48.909Z,990.00
2017-10-07T09:04:48.816Z,877.50
2017-10-07T09:05:48.754Z,843.75
2017-10-07T09:06:48.661Z,826.88
2017-10-07T09:07:48.591Z,843.75
2017-10-07T09:08:48.497Z,888.75
2017-10-07T09:09:48.416Z,1091.25
2017-10-07T09:10:48.365Z,1760.63
2017-10-07T09:11:48.257Z,1597.50
2017-10-07T09:12:48.201Z,1586.25
2017-10-07T09:13:48.094Z,2210.63
2017-10-07T09:14:48.012Z,1665.00
2017-10-07T09:15:47.933Z,2491.88
2017-10-07T09:16:47.856Z,1524.38
2017-10-07T09:17:47.774Z,1108.13
2017-10-07T09:18:47.692Z,1046.25
2017-10-07T09:19:47.615Z,1057.50
2017-10-07T09:20:47.531Z,961.88
2017-10-07T09:21:48.139Z,928.13
2017-10-07T09:22:47.368Z,945.00
2017-10-07T09:23:47.290Z,973.13
2017-10-07T09:24:47.222Z,1029.38
2017-10-07T09:25:47.130Z,1136.25
2017-10-07T09:26:47.053Z,1074.38
2017-10-07T09:27:46.969Z,1119.38
2017-10-07T09:28:46.897Z,1265.63
2017-10-07T09:29:46.814Z,1378.13
2017-10-07T09:30:46.728Z,1333.13
2017-10-07T09:31:46.678Z,1170.00
2017-10-07T09:32:46.565Z,1085.63
2017-10-07T09:33:46.488Z,1029.38
2017-10-07T09:34:46.414Z,1012.50
2017-10-07T09:35:46.326Z,939.38
2017-10-07T09:36:46.248Z,843.75
2017-10-07T09:37:46.173Z,753.75
2017-10-07T09:38:46.081Z,708.75
2017-10-07T09:39:46.001Z,697.50
2017-10-07T09:40:45.926Z,680.63
2017-10-07T09:41:45.849Z,675.00
2017-10-07T09:42:45.767Z,697.50
2017-10-07T09:43:45.679Z,731.25
2017-10-07T09:44:45.617Z,765.00
2017-10-07T09:45:45.519Z,832.50
2017-10-07T09:46:45.438Z,900.00
2017-10-07T09:47:45.355Z,922.50
2017-10-07T09:48:45.278Z,916.88
2017-10-07T09:49:45.198Z,900.00
2017-10-07T09:50:45.113Z,888.75
2017-10-07T09:51:45.033Z,855.00
2017-10-07T09:52:44.961Z,821.25
2017-10-07T09:53:44.873Z,776.25
2017-10-07T09:54:44.794Z,736.88
2017-10-07T09:55:44.720Z,697.50
2017-10-07T09:56:44.630Z,641.25
2017-10-07T09:57:44.560Z,601.88
2017-10-07T09:58:44.499Z,556.88
2017-10-07T09:59:44.413Z,540.00
2017-10-07T10:00:44.306Z,495.00
2017-10-07T10:01:44.221Z,455.63
2017-10-07T10:02:44.147Z,416.25
2017-10-07T10:03:44.060Z,405.00
2017-10-07T10:04:43.985Z,382.50
2017-10-07T10:05:43.900Z,337.50
2017-10-07T10:06:43.839Z,343.13
2017-10-07T10:07:43.732Z,343.13
2017-10-07T10:08:43.645Z,348.75
2017-10-07T10:09:43.579Z,326.25
2017-10-07T10:10:43.519Z,348.75
2017-10-07T10:11:43.406Z,337.50
2017-10-07T10:12:43.329Z,320.63
2017-10-07T10:13:43.256Z,281.25
2017-10-07T10:14:43.170Z,236.25
2017-10-07T10:15:43.083Z,247.50
2017-10-07T10:16:43.012Z,275.63
2017-10-07T10:17:42.955Z,292.50
2017-10-07T10:18:42.841Z,320.63
2017-10-07T10:19:42.764Z,309.38
2017-10-07T10:20:42.715Z,326.25
2017-10-07T10:21:42.599Z,326.25
2017-10-07T10:22:42.535Z,309.38
2017-10-07T10:23:42.447Z,331.88
2017-10-07T10:24:42.362Z,348.75
2017-10-07T10:25:42.276Z,399.38
2017-10-07T10:26:42.193Z,450.00
2017-10-07T10:27:42.136Z,793.13
2017-10-07T10:28:42.053Z,725.63
2017-10-07T10:29:41.952Z,849.38
2017-10-07T10:30:41.869Z,781.88
2017-10-07T10:31:41.790Z,720.00
2017-10-07T10:32:41.704Z,585.00
2017-10-07T10:33:41.633Z,483.75
2017-10-07T10:34:41.563Z,495.00
2017-10-07T10:35:41.462Z,551.25
2017-10-07T10:36:41.378Z,551.25
2017-10-07T10:37:41.297Z,528.75
2017-10-07T10:38:41.223Z,393.75
2017-10-07T10:39:41.133Z,562.50
2017-10-07T10:40:41.051Z,725.63
2017-10-07T10:41:40.979Z,821.25
2017-10-07T10:42:40.903Z,793.13
2017-10-07T10:43:40.807Z,843.75
2017-10-07T10:44:40.733Z,781.88
2017-10-07T10:45:40.661Z,708.75
2017-10-07T10:46:40.571Z,714.38
2017-10-07T10:47:40.490Z,1068.75
2017-10-07T10:48:40.413Z,928.13
2017-10-07T10:49:40.335Z,860.63
2017-10-07T10:50:40.265Z,1181.25
2017-10-07T10:51:40.188Z,832.50
2017-10-07T10:52:40.089Z,708.75
2017-10-07T10:53:40.014Z,916.88
2017-10-07T10:54:39.967Z,787.50
2017-10-07T10:55:39.848Z,703.13
2017-10-07T10:56:39.775Z,1243.13
2017-10-07T10:57:39.688Z,973.13
2017-10-07T10:58:39.615Z,1603.13
2017-10-07T10:59:39.522Z,1001.25
2017-10-07T11:00:39.460Z,1057.50
2017-10-07T11:01:39.365Z,1108.13
2017-10-07T11:02:39.284Z,1119.38
2017-10-07T11:03:39.218Z,1428.75
2017-10-07T11:04:39.124Z,1918.13
2017-10-07T11:05:39.048Z,2801.25
2017-10-07T11:06:38.971Z,2930.63
2017-10-07T11:07:38.887Z,2261.25
2017-10-07T11:08:38.813Z,1749.38
2017-10-07T11:09:38.797Z,838.13
2017-10-07T11:10:38.654Z,787.50
2017-10-07T11:11:38.571Z,736.88
2017-10-07T11:12:38.495Z,703.13
2017-10-07T11:13:38.414Z,663.75
2017-10-07T11:14:38.343Z,630.00
2017-10-07T11:15:38.261Z,579.38
2017-10-07T11:16:38.195Z,500.63
2017-10-07T11:17:38.099Z,472.50
2017-10-07T11:18:38.019Z,483.75
2017-10-07T11:19:37.937Z,483.75
2017-10-07T11:20:37.872Z,528.75
2017-10-07T11:21:37.774Z,534.38
2017-10-07T11:22:37.690Z,534.38
2017-10-07T11:23:37.619Z,540.00
2017-10-07T11:24:37.532Z,511.88
2017-10-07T11:25:37.452Z,433.13
2017-10-07T11:26:37.370Z,376.88
2017-10-07T11:27:37.307Z,388.13
2017-10-07T11:28:37.207Z,427.50
2017-10-07T11:29:37.141Z,450.00
2017-10-07T11:30:37.045Z,506.25
2017-10-07T11:31:36.960Z,562.50
2017-10-07T11:32:36.912Z,765.00
2017-10-07T11:33:36.803Z,1440.00
2017-10-07T11:34:36.765Z,1935.00
2017-10-07T11:35:36.658Z,2362.50
2017-10-07T11:36:36.553Z,2148.75
2017-10-07T11:37:36.496Z,1895.63
2017-10-07T11:38:36.410Z,1203.75
2017-10-07T11:39:36.313Z,1456.88
2017-10-07T11:40:36.240Z,1428.75
2017-10-07T11:41:36.157Z,787.50
2017-10-07T11:42:36.069Z,703.13
2017-10-07T11:43:35.987Z,967.50
2017-10-07T11:44:35.911Z,978.75
2017-10-07T11:45:35.830Z,978.75
2017-10-07T11:46:35.744Z,967.50
2017-10-07T11:47:35.667Z,933.75
2017-10-07T11:48:35.581Z,883.13
2017-10-07T11:49:35.504Z,871.88
2017-10-07T11:50:35.421Z,804.38
2017-10-07T11:51:35.339Z,821.25
2017-10-07T11:52:35.257Z,618.75
2017-10-07T11:53:35.176Z,731.25
2017-10-07T11:54:35.109Z,708.75
2017-10-07T11:55:35.012Z,568.13
2017-10-07T11:56:34.929Z,646.88
2017-10-07T11:57:34.852Z,675.00
2017-10-07T11:58:34.770Z,736.88
2017-10-07T11:59:34.690Z,736.88
2017-10-07T12:00:34.606Z,838.13
2017-10-07T12:01:34.532Z,675.00
2017-10-07T12:02:34.439Z,624.38
2017-10-07T12:03:34.366Z,534.38
2017-10-07T12:04:34.288Z,517.50
2017-10-07T12:05:34.199Z,540.00
2017-10-07T12:06:34.126Z,545.63
2017-10-07T12:07:34.035Z,545.63
2017-10-07T12:08:33.952Z,551.25
2017-10-07T12:09:33.874Z,573.75
2017-10-07T12:10:33.797Z,551.25
2017-10-07T12:11:33.715Z,517.50
2017-10-07T12:12:33.638Z,455.63
2017-10-07T12:13:33.544Z,438.75
2017-10-07T12:14:33.468Z,461.25
2017-10-07T12:15:33.385Z,466.88
2017-10-07T12:16:33.299Z,466.88
2017-10-07T12:17:33.221Z,444.38
2017-10-07T12:18:33.139Z,444.38
2017-10-07T12:19:33.094Z,450.00
2017-10-07T12:20:32.979Z,433.13
2017-10-07T12:21:32.900Z,433.13
2017-10-07T12:22:32.815Z,421.88
2017-10-07T12:23:32.729Z,382.50
2017-10-07T12:24:32.652Z,360.00
2017-10-07T12:25:32.596Z,365.63
2017-10-07T12:26:32.493Z,388.13
2017-10-07T12:27:32.405Z,388.13
2017-10-07T12:28:32.326Z,376.88
2017-10-07T12:29:32.246Z,371.25
2017-10-07T12:30:32.163Z,360.00
2017-10-07T12:31:32.080Z,331.88
2017-10-07T12:32:32.001Z,326.25
2017-10-07T12:33:31.922Z,320.63
2017-10-07T12:34:31.833Z,303.75
2017-10-07T12:35:31.748Z,281.25
2017-10-07T12:36:31.662Z,275.63
2017-10-07T12:37:31.585Z,270.00
2017-10-07T12:38:31.504Z,264.38
2017-10-07T12:39:31.425Z,253.13
2017-10-07T12:40:31.339Z,253.13
2017-10-07T12:41:31.258Z,258.75
2017-10-07T12:42:31.183Z,258.75
2017-10-07T12:43:31.095Z,270.00
2017-10-07T12:44:31.026Z,281.25
2017-10-07T12:45:30.928Z,281.25